Time;durP1;ratioP1;P1;durP2;ratioP2;P2;SDS_P1;SDS_P2;PMS_P1;PMS_P2;Temp;Humidity;BMP_temperature;BMP_pressure;BME280_temperature;BME280_humidity;BME280_pressure;Samples;Min_cycle;Max_cycle;Signal;HPM_P1;HPM_P2
2021/06/30 00:01:57;;;;;;;8.00;5.72;;;;;;;;;;3581006;40;20049;-58
2021/06/30 00:04:23;;;;;;;9.38;6.15;;;;;;;;;;3582342;40;20072;-59
2021/06/30 00:06:48;;;;;;;7.90;5.57;;;;;;;;;;3583175;40;20371;-58
2021/06/30 00:09:18;;;;;;;9.00;5.57;;;;;;;;;;3582538;40;20107;-58
2021/06/30 00:11:44;;;;;;;9.88;5.38;;;;;;;;;;3581578;40;20033;-58
2021/06/30 00:14:10;;;;;;;12.93;5.00;;;;;;;;;;3581306;40;20032;-58
2021/06/30 00:16:36;;;;;;;6.43;5.43;;;;;;;;;;3583233;40;20047;-58
2021/06/30 00:19:04;;;;;;;8.05;5.35;;;;;;;;;;3583543;40;20133;-58
2021/06/30 00:21:30;;;;;;;7.30;4.70;;;;;;;;;;3581642;40;20071;-58
2021/06/30 00:23:55;;;;;;;6.43;4.50;;;;;;;;;;3582204;40;20084;-58
2021/06/30 00:26:21;;;;;;;10.45;4.68;;;;;;;;;;3584678;40;20286;-58
2021/06/30 00:28:47;;;;;;;8.43;5.05;;;;;;;;;;3583480;40;20032;-58
2021/06/30 00:31:12;;;;;;;7.97;4.78;;;;;;;;;;3582985;40;20054;-59
2021/06/30 00:33:38;;;;;;;7.30;5.47;;;;;;;;;;3581245;40;20431;-59
2021/06/30 00:36:04;;;;;;;9.35;5.40;;;;;;;;;;3581880;40;20041;-59
2021/06/30 00:38:29;;;;;;;6.22;4.75;;;;;;;;;;3585039;40;20150;-59
2021/06/30 00:40:55;;;;;;;7.45;5.10;;;;;;;;;;3584203;40;20058;-59
2021/06/30 00:43:20;;;;;;;9.52;5.07;;;;;;;;;;3583253;40;20032;-59
2021/06/30 00:45:48;;;;;;;8.40;5.53;;;;;;;;;;3582033;40;20072;-59
2021/06/30 00:48:14;;;;;;;7.88;4.50;;;;;;;;;;3585251;40;20048;-59
2021/06/30 00:50:39;;;;;;;9.80;4.75;;;;;;;;;;3585274;40;20375;-59
2021/06/30 00:53:05;;;;;;;7.00;4.97;;;;;;;;;;3582615;40;20119;-59
2021/06/30 00:55:30;;;;;;;8.05;4.20;;;;;;;;;;3580484;40;20458;-60
2021/06/30 00:57:57;;;;;;;13.05;4.18;;;;;;;;;;3581999;40;20032;-60
2021/06/30 01:00:23;;;;;;;8.18;3.95;;;;;;;;;;3583610;40;20263;-59
2021/06/30 01:02:48;;;;;;;10.93;4.13;;;;;;;;;;3582540;40;20029;-59
2021/06/30 01:05:15;;;;;;;7.60;4.05;;;;;;;;;;3573934;40;20482;-59
2021/06/30 01:07:40;;;;;;;6.10;3.75;;;;;;;;;;3581672;40;20043;-59
2021/06/30 01:10:06;;;;;;;10.45;4.03;;;;;;;;;;3584305;40;20056;-59
2021/06/30 01:12:32;;;;;;;5.43;4.38;;;;;;;;;;3583557;40;20044;-59
2021/06/30 01:15:06;;;;;;;7.07;4.18;;;;;;;;;;3583153;40;20029;-58
2021/06/30 01:17:31;;;;;;;10.48;4.47;;;;;;;;;;3582297;40;20379;-59
2021/06/30 01:19:57;;;;;;;7.72;4.38;;;;;;;;;;3582217;40;20069;-59
2021/06/30 01:22:24;;;;;;;5.72;3.70;;;;;;;;;;3582133;40;20052;-59
2021/06/30 01:24:52;;;;;;;10.35;3.78;;;;;;;;;;3582949;40;20039;-59
2021/06/30 01:27:19;;;;;;;5.38;3.80;;;;;;;;;;3583510;40;20048;-59
2021/06/30 01:29:46;;;;;;;7.38;4.10;;;;;;;;;;3582702;40;20048;-59
2021/06/30 01:32:11;;;;;;;6.82;4.45;;;;;;;;;;3583602;40;20822;-59
2021/06/30 01:34:37;;;;;;;7.55;3.80;;;;;;;;;;3583083;40;20040;-60
2021/06/30 01:37:03;;;;;;;6.05;4.20;;;;;;;;;;3583618;40;20052;-60
2021/06/30 01:39:28;;;;;;;7.70;5.20;;;;;;;;;;3580955;40;20039;-60
2021/06/30 01:41:54;;;;;;;5.82;4.43;;;;;;;;;;3583293;40;20044;-59
2021/06/30 01:44:20;;;;;;;6.28;4.47;;;;;;;;;;3583797;40;20437;-59
2021/06/30 01:46:46;;;;;;;6.60;4.20;;;;;;;;;;3583569;40;20486;-59
2021/06/30 01:49:12;;;;;;;7.82;4.57;;;;;;;;;;3584099;40;20294;-59
2021/06/30 01:51:37;;;;;;;6.43;4.50;;;;;;;;;;3568698;40;20063;-59
2021/06/30 01:54:05;;;;;;;10.90;5.53;;;;;;;;;;3583160;40;20108;-59
2021/06/30 01:56:32;;;;;;;8.73;4.60;;;;;;;;;;3582437;40;20144;-60
2021/06/30 01:59:08;;;;;;;13.80;4.93;;;;;;;;;;3580928;40;20045;-60
2021/06/30 02:01:35;;;;;;;7.97;4.82;;;;;;;;;;3572243;40;20033;-59
2021/06/30 02:04:01;;;;;;;5.50;4.55;;;;;;;;;;3581629;40;20036;-60
2021/06/30 02:06:28;;;;;;;7.82;4.95;;;;;;;;;;3582232;40;20459;-60
2021/06/30 02:08:57;;;;;;;6.03;4.15;;;;;;;;;;3581564;40;20127;-59
2021/06/30 02:11:24;;;;;;;4.70;4.10;;;;;;;;;;3582439;40;20565;-60
2021/06/30 02:13:50;;;;;;;6.32;4.25;;;;;;;;;;3581958;40;20033;-59
2021/06/30 02:16:15;;;;;;;5.65;4.10;;;;;;;;;;3584121;40;20071;-59
2021/06/30 02:18:41;;;;;;;5.25;3.85;;;;;;;;;;3583719;40;20040;-59
2021/06/30 02:21:07;;;;;;;6.43;4.10;;;;;;;;;;3582108;40;20033;-59
2021/06/30 02:23:32;;;;;;;5.25;3.47;;;;;;;;;;3581438;40;20044;-60
2021/06/30 02:25:58;;;;;;;8.35;3.97;;;;;;;;;;3583430;40;20085;-59
2021/06/30 02:28:23;;;;;;;9.32;4.30;;;;;;;;;;3582774;40;20033;-59
2021/06/30 02:30:50;;;;;;;7.22;4.25;;;;;;;;;;3582572;40;20029;-60
2021/06/30 02:33:16;;;;;;;5.28;3.97;;;;;;;;;;3571793;40;20044;-59
2021/06/30 02:35:41;;;;;;;7.57;3.75;;;;;;;;;;3579529;40;20036;-59
2021/06/30 02:38:08;;;;;;;9.02;3.78;;;;;;;;;;3581466;40;20445;-57
2021/06/30 02:40:34;;;;;;;6.93;3.88;;;;;;;;;;3581088;40;20042;-59
2021/06/30 02:43:00;;;;;;;8.70;4.00;;;;;;;;;;3582197;40;20055;-60
2021/06/30 02:45:26;;;;;;;9.20;4.50;;;;;;;;;;3579721;40;20029;-59
2021/06/30 02:47:52;;;;;;;11.73;5.20;;;;;;;;;;3582883;40;20128;-59
2021/06/30 02:50:18;;;;;;;8.55;4.30;;;;;;;;;;3583029;40;20040;-59
2021/06/30 02:52:45;;;;;;;6.22;4.80;;;;;;;;;;3583735;40;20040;-59
2021/06/30 02:55:11;;;;;;;9.02;4.32;;;;;;;;;;3583187;40;20123;-59
2021/06/30 02:57:37;;;;;;;8.27;4.53;;;;;;;;;;3581545;40;20044;-60
2021/06/30 03:00:09;;;;;;;6.30;4.90;;;;;;;;;;3582504;40;20051;-59
2021/06/30 03:02:35;;;;;;;8.38;4.97;;;;;;;;;;3576681;40;20102;-59
2021/06/30 03:05:00;;;;;;;6.25;4.75;;;;;;;;;;3573820;40;20056;-59
2021/06/30 03:07:26;;;;;;;8.30;5.18;;;;;;;;;;3582447;40;20049;-59
2021/06/30 03:09:51;;;;;;;6.72;5.25;;;;;;;;;;3580393;40;20036;-59
2021/06/30 03:12:17;;;;;;;8.70;5.25;;;;;;;;;;3582942;40;20079;-59
2021/06/30 03:14:43;;;;;;;10.02;5.35;;;;;;;;;;3582480;40;20048;-59
2021/06/30 03:17:08;;;;;;;7.60;5.35;;;;;;;;;;3581225;40;20053;-59
2021/06/30 03:19:34;;;;;;;10.43;5.13;;;;;;;;;;3580623;40;20051;-59
2021/06/30 03:21:59;;;;;;;8.68;5.32;;;;;;;;;;3583950;40;20033;-59
2021/06/30 03:24:25;;;;;;;7.13;5.07;;;;;;;;;;3583167;40;20037;-59
2021/06/30 03:26:50;;;;;;;12.93;5.68;;;;;;;;;;3582904;40;20119;-59
2021/06/30 03:29:16;;;;;;;12.15;6.00;;;;;;;;;;3578976;40;20021;-59
2021/06/30 03:31:42;;;;;;;8.00;5.72;;;;;;;;;;3582800;40;20348;-59
2021/06/30 03:34:08;;;;;;;8.85;4.90;;;;;;;;;;3581121;40;20122;-59
2021/06/30 03:36:33;;;;;;;6.70;5.70;;;;;;;;;;3574007;40;20076;-59
2021/06/30 03:38:59;;;;;;;9.73;5.35;;;;;;;;;;3582095;40;20024;-59
2021/06/30 03:41:24;;;;;;;8.50;5.00;;;;;;;;;;3581313;40;20039;-59
2021/06/30 03:43:50;;;;;;;9.98;5.53;;;;;;;;;;3582939;40;20040;-59
2021/06/30 03:46:15;;;;;;;7.93;5.28;;;;;;;;;;3583293;40;20041;-59
2021/06/30 03:48:41;;;;;;;13.05;5.47;;;;;;;;;;3584400;40;20465;-60
2021/06/30 03:51:06;;;;;;;11.82;5.32;;;;;;;;;;3582028;40;20040;-60
2021/06/30 03:53:32;;;;;;;10.43;5.70;;;;;;;;;;3583932;40;20040;-60
2021/06/30 03:55:57;;;;;;;9.10;5.57;;;;;;;;;;3584551;40;20040;-59
2021/06/30 03:58:23;;;;;;;7.53;5.63;;;;;;;;;;3583047;40;20038;-60
2021/06/30 04:00:48;;;;;;;9.30;5.93;;;;;;;;;;3582986;40;20091;-60
2021/06/30 04:03:14;;;;;;;6.80;4.10;;;;;;;;;;3582777;40;20052;-57
2021/06/30 04:05:40;;;;;;;6.35;4.53;;;;;;;;;;3584447;40;20572;-60
2021/06/30 04:08:09;;;;;;;14.27;5.07;;;;;;;;;;3584615;40;20037;-57
2021/06/30 04:10:35;;;;;;;8.27;4.88;;;;;;;;;;3585213;40;20027;-57
2021/06/30 04:13:00;;;;;;;11.20;5.15;;;;;;;;;;3576771;40;20276;-58
2021/06/30 04:15:26;;;;;;;15.32;5.50;;;;;;;;;;3576639;40;20040;-58
2021/06/30 04:17:51;;;;;;;8.02;5.32;;;;;;;;;;3584671;40;20037;-58
2021/06/30 04:20:17;;;;;;;7.32;4.88;;;;;;;;;;3583962;40;20040;-58
2021/06/30 04:22:42;;;;;;;8.50;5.43;;;;;;;;;;3584229;40;20308;-58
2021/06/30 04:25:09;;;;;;;7.43;4.78;;;;;;;;;;3584165;40;20031;-58
2021/06/30 04:27:34;;;;;;;11.52;5.97;;;;;;;;;;3582260;40;20037;-58
2021/06/30 04:30:00;;;;;;;7.13;5.15;;;;;;;;;;3583154;40;20566;-58
2021/06/30 04:32:26;;;;;;;6.35;4.85;;;;;;;;;;3582945;40;20037;-58
2021/06/30 04:34:51;;;;;;;7.32;5.40;;;;;;;;;;3582352;40;20048;-58
2021/06/30 04:37:17;;;;;;;8.27;5.65;;;;;;;;;;3582403;40;20034;-58
2021/06/30 04:39:42;;;;;;;9.68;5.20;;;;;;;;;;3585240;40;20566;-58
2021/06/30 04:42:08;;;;;;;8.45;5.57;;;;;;;;;;3581822;40;20040;-58
2021/06/30 04:44:33;;;;;;;6.60;5.05;;;;;;;;;;3582688;40;20032;-58
2021/06/30 04:46:59;;;;;;;7.10;5.25;;;;;;;;;;3574688;40;20041;-59
2021/06/30 04:49:24;;;;;;;8.02;5.22;;;;;;;;;;3582954;40;20639;-58
2021/06/30 04:51:50;;;;;;;6.43;4.57;;;;;;;;;;3582687;40;20048;-58
2021/06/30 04:54:17;;;;;;;4.97;4.10;;;;;;;;;;3576614;40;20048;-58
2021/06/30 04:56:43;;;;;;;5.72;4.32;;;;;;;;;;3581079;40;20044;-59
2021/06/30 04:59:09;;;;;;;8.63;4.90;;;;;;;;;;3583046;40;20492;-59
2021/06/30 05:01:35;;;;;;;8.57;4.57;;;;;;;;;;3582749;40;20141;-59
2021/06/30 05:04:01;;;;;;;5.47;4.45;;;;;;;;;;3583338;40;20045;-59
2021/06/30 05:06:26;;;;;;;12.40;4.90;;;;;;;;;;3584598;40;20044;-59
2021/06/30 05:08:52;;;;;;;6.80;3.80;;;;;;;;;;3583815;40;20399;-59
2021/06/30 05:11:17;;;;;;;8.18;4.22;;;;;;;;;;3583559;40;20040;-59
2021/06/30 05:13:43;;;;;;;6.57;4.30;;;;;;;;;;3583943;40;20044;-59
2021/06/30 05:16:08;;;;;;;5.72;4.10;;;;;;;;;;3582814;40;20045;-59
2021/06/30 05:18:34;;;;;;;6.93;4.03;;;;;;;;;;3581058;40;20409;-59
2021/06/30 05:20:59;;;;;;;6.03;3.95;;;;;;;;;;3581687;40;20088;-59
2021/06/30 05:23:25;;;;;;;5.25;3.88;;;;;;;;;;3583551;40;20044;-59
2021/06/30 05:25:52;;;;;;;9.65;3.78;;;;;;;;;;3583095;40;20357;-59
2021/06/30 05:28:17;;;;;;;7.43;3.97;;;;;;;;;;3584321;40;20025;-59
2021/06/30 05:30:43;;;;;;;6.40;3.80;;;;;;;;;;3581968;40;20028;-59
2021/06/30 05:33:08;;;;;;;8.02;3.60;;;;;;;;;;3584096;40;20125;-59
2021/06/30 05:35:34;;;;;;;8.25;4.25;;;;;;;;;;3582453;40;20063;-59
2021/06/30 05:37:59;;;;;;;11.55;4.68;;;;;;;;;;3582269;40;20371;-60
2021/06/30 05:40:25;;;;;;;6.40;3.63;;;;;;;;;;3582138;40;20053;-59
2021/06/30 05:42:51;;;;;;;7.55;4.32;;;;;;;;;;3581376;40;20096;-59
2021/06/30 05:45:17;;;;;;;6.65;3.97;;;;;;;;;;3583794;40;20048;-59
2021/06/30 05:47:44;;;;;;;6.28;4.65;;;;;;;;;;3583709;40;20052;-59
2021/06/30 05:50:11;;;;;;;8.20;4.82;;;;;;;;;;3582820;40;20074;-59
2021/06/30 05:52:37;;;;;;;7.30;4.22;;;;;;;;;;3581888;40;20040;-59
2021/06/30 05:55:04;;;;;;;8.27;5.20;;;;;;;;;;3583112;40;20056;-59
2021/06/30 05:57:29;;;;;;;7.97;4.30;;;;;;;;;;3584622;40;20073;-59
2021/06/30 05:59:55;;;;;;;7.10;4.57;;;;;;;;;;3583298;40;20419;-59
2021/06/30 06:02:20;;;;;;;9.00;4.93;;;;;;;;;;3581903;40;20041;-60
2021/06/30 06:04:46;;;;;;;8.70;4.75;;;;;;;;;;3583249;40;20037;-59
2021/06/30 06:07:11;;;;;;;11.75;4.85;;;;;;;;;;3584306;40;20035;-59
2021/06/30 06:09:37;;;;;;;6.88;4.55;;;;;;;;;;3583867;40;20029;-59
2021/06/30 06:12:03;;;;;;;8.52;4.45;;;;;;;;;;3575625;40;20044;-60
2021/06/30 06:14:28;;;;;;;6.80;4.25;;;;;;;;;;3580802;40;20118;-60
2021/06/30 06:16:55;;;;;;;7.15;4.43;;;;;;;;;;3581144;40;20213;-59
2021/06/30 06:19:21;;;;;;;6.07;4.55;;;;;;;;;;3582880;40;20040;-59
2021/06/30 06:21:47;;;;;;;6.40;4.72;;;;;;;;;;3582692;40;20029;-60
2021/06/30 06:24:13;;;;;;;10.65;4.88;;;;;;;;;;3580723;40;20037;-60
2021/06/30 06:26:38;;;;;;;10.45;5.13;;;;;;;;;;3581507;40;20040;-60
2021/06/30 06:29:04;;;;;;;12.23;5.20;;;;;;;;;;3581440;40;20377;-60
2021/06/30 06:31:30;;;;;;;13.57;4.63;;;;;;;;;;3581723;40;20036;-59
2021/06/30 06:33:55;;;;;;;8.25;5.40;;;;;;;;;;3582253;40;20048;-59
2021/06/30 06:36:21;;;;;;;7.50;4.93;;;;;;;;;;3580830;40;20045;-59
2021/06/30 06:38:47;;;;;;;8.30;5.28;;;;;;;;;;3583156;40;20056;-59
2021/06/30 06:41:13;;;;;;;7.40;5.55;;;;;;;;;;3574414;40;20403;-59
2021/06/30 06:43:42;;;;;;;9.82;5.18;;;;;;;;;;3582133;40;20033;-59
2021/06/30 06:46:08;;;;;;;8.15;5.32;;;;;;;;;;3574953;40;20033;-58
2021/06/30 06:48:33;;;;;;;10.57;6.15;;;;;;;;;;3576097;40;20052;-59
2021/06/30 06:50:59;;;;;;;11.57;6.35;;;;;;;;;;3582430;40;20072;-59
2021/06/30 06:53:24;;;;;;;9.80;5.60;;;;;;;;;;3581701;40;20118;-59
2021/06/30 06:55:51;;;;;;;7.78;6.35;;;;;;;;;;3581981;40;20137;-59
2021/06/30 06:58:17;;;;;;;13.48;6.47;;;;;;;;;;3581913;40;20129;-59
2021/06/30 07:00:42;;;;;;;11.25;6.20;;;;;;;;;;3581297;40;20356;-59
2021/06/30 07:03:07;;;;;;;11.73;6.97;;;;;;;;;;3583039;40;20051;-59
2021/06/30 07:05:33;;;;;;;10.82;6.32;;;;;;;;;;3582746;40;20041;-60
2021/06/30 07:07:59;;;;;;;7.30;6.28;;;;;;;;;;3583709;40;20029;-59
2021/06/30 07:10:24;;;;;;;9.75;5.70;;;;;;;;;;3582442;40;20045;-59
2021/06/30 07:12:49;;;;;;;11.95;6.18;;;;;;;;;;3582365;40;20055;-60
2021/06/30 07:15:15;;;;;;;8.38;5.97;;;;;;;;;;3583107;40;20418;-60
2021/06/30 07:17:40;;;;;;;7.53;5.75;;;;;;;;;;3572209;40;20319;-60
2021/06/30 07:20:07;;;;;;;12.05;5.68;;;;;;;;;;3581270;40;20032;-59
2021/06/30 07:22:33;;;;;;;16.58;5.93;;;;;;;;;;3581300;40;20049;-59
2021/06/30 07:24:58;;;;;;;13.55;5.88;;;;;;;;;;3582306;40;20029;-59
2021/06/30 07:27:24;;;;;;;9.65;5.90;;;;;;;;;;3580592;40;20037;-59
2021/06/30 07:29:49;;;;;;;9.68;6.05;;;;;;;;;;3583274;40;20041;-59
2021/06/30 07:32:16;;;;;;;7.88;5.43;;;;;;;;;;3581278;40;20044;-59
2021/06/30 07:34:42;;;;;;;6.95;5.38;;;;;;;;;;3583826;40;20036;-60
2021/06/30 07:37:07;;;;;;;7.50;5.43;;;;;;;;;;3583065;40;20040;-60
2021/06/30 07:39:33;;;;;;;9.60;5.70;;;;;;;;;;3576469;40;20057;-60
2021/06/30 07:42:00;;;;;;;8.00;5.20;;;;;;;;;;3582395;40;20127;-59
2021/06/30 07:44:26;;;;;;;7.00;5.00;;;;;;;;;;3581242;40;20044;-59
2021/06/30 07:46:51;;;;;;;10.93;6.07;;;;;;;;;;3580999;40;20276;-59
2021/06/30 07:49:17;;;;;;;7.93;5.45;;;;;;;;;;3582875;40;20126;-59
2021/06/30 07:51:42;;;;;;;7.07;5.70;;;;;;;;;;3581019;40;20075;-59
2021/06/30 07:54:07;;;;;;;7.43;5.40;;;;;;;;;;3582176;40;20052;-59
2021/06/30 07:56:34;;;;;;;8.85;5.70;;;;;;;;;;3582874;40;20052;-59
2021/06/30 07:59:10;;;;;;;8.75;6.38;;;;;;;;;;3583094;40;20083;-59
2021/06/30 08:01:36;;;;;;;9.68;5.78;;;;;;;;;;3580466;40;20385;-59
2021/06/30 08:04:03;;;;;;;8.25;6.13;;;;;;;;;;3574919;40;20037;-60
2021/06/30 08:06:29;;;;;;;12.68;6.60;;;;;;;;;;3583538;40;20070;-59
2021/06/30 08:08:54;;;;;;;11.43;6.22;;;;;;;;;;3584210;40;20360;-60
2021/06/30 08:11:23;;;;;;;10.20;6.03;;;;;;;;;;3583149;40;20411;-60
2021/06/30 08:13:50;;;;;;;14.43;6.78;;;;;;;;;;3582032;40;20154;-60
2021/06/30 08:16:16;;;;;;;13.38;7.15;;;;;;;;;;3575713;40;20049;-60
2021/06/30 08:18:42;;;;;;;7.32;5.68;;;;;;;;;;3581447;40;20059;-60
2021/06/30 08:21:07;;;;;;;7.25;5.70;;;;;;;;;;3583300;40;20025;-60
2021/06/30 08:23:33;;;;;;;13.02;6.25;;;;;;;;;;3580227;40;20044;-60
2021/06/30 08:25:58;;;;;;;8.40;5.60;;;;;;;;;;3580635;40;20117;-60
2021/06/30 08:28:25;;;;;;;8.52;5.30;;;;;;;;;;3580016;40;20037;-60
2021/06/30 08:30:51;;;;;;;11.52;5.07;;;;;;;;;;3581937;40;20268;-60
2021/06/30 08:33:18;;;;;;;5.70;4.75;;;;;;;;;;3583220;40;20035;-60
2021/06/30 08:35:43;;;;;;;5.40;4.22;;;;;;;;;;3581492;40;20045;-60
2021/06/30 08:38:09;;;;;;;9.32;4.88;;;;;;;;;;3583519;40;20148;-59
2021/06/30 08:40:37;;;;;;;4.00;3.05;;;;;;;;;;3584310;40;20311;-60
2021/06/30 08:43:03;;;;;;;4.75;3.20;;;;;;;;;;3582780;40;20129;-60
2021/06/30 08:45:28;;;;;;;6.18;3.33;;;;;;;;;;3583327;40;20045;-59
2021/06/30 08:47:57;;;;;;;5.80;3.55;;;;;;;;;;3583495;40;20044;-59
2021/06/30 08:50:23;;;;;;;5.75;2.90;;;;;;;;;;3584677;40;20067;-58
2021/06/30 08:52:51;;;;;;;6.10;3.20;;;;;;;;;;3582379;40;20130;-58
2021/06/30 08:55:17;;;;;;;5.45;2.95;;;;;;;;;;3583325;40;20659;-58
2021/06/30 08:57:48;;;;;;;3.83;2.80;;;;;;;;;;3582846;40;20040;-58
2021/06/30 09:00:14;;;;;;;4.30;2.78;;;;;;;;;;3584848;40;20047;-59
2021/06/30 09:02:45;;;;;;;3.60;2.30;;;;;;;;;;3584465;40;20057;-59
2021/06/30 09:05:48;;;;;;;3.00;1.80;;;;;;;;;;3582836;40;20037;-58
2021/06/30 09:08:01;;;;;;;6.00;2.33;;;;;;;;;;3581273;40;20033;-58
2021/06/30 09:10:30;;;;;;;5.70;2.13;;;;;;;;;;3582205;40;20032;-58
2021/06/30 09:12:57;;;;;;;6.13;1.60;;;;;;;;;;3583317;40;20040;-58
2021/06/30 09:15:31;;;;;;;3.83;1.98;;;;;;;;;;3582975;40;20032;-59
2021/06/30 09:18:15;;;;;;;3.72;2.08;;;;;;;;;;3582004;40;20029;-58
2021/06/30 09:20:41;;;;;;;3.10;1.65;;;;;;;;;;3583282;40;20145;-59
2021/06/30 09:23:06;;;;;;;3.58;2.10;;;;;;;;;;3583084;40;20404;-58
2021/06/30 09:25:39;;;;;;;4.22;1.80;;;;;;;;;;3577021;40;20542;-59
2021/06/30 09:28:24;;;;;;;3.97;1.88;;;;;;;;;;3582161;40;20041;-59
2021/06/30 09:31:04;;;;;;;4.85;2.22;;;;;;;;;;3583329;40;20040;-59
2021/06/30 09:33:50;;;;;;;3.47;2.15;;;;;;;;;;3582911;40;20053;-59
2021/06/30 09:36:15;;;;;;;7.10;2.67;;;;;;;;;;3583385;40;20055;-58
2021/06/30 09:38:43;;;;;;;3.80;2.60;;;;;;;;;;3576502;40;20037;-58
2021/06/30 09:41:18;;;;;;;3.38;2.30;;;;;;;;;;3583209;40;20049;-59
2021/06/30 09:43:43;;;;;;;7.45;2.80;;;;;;;;;;3583328;40;20045;-58
2021/06/30 09:46:21;;;;;;;4.18;2.70;;;;;;;;;;3583442;40;20048;-59
2021/06/30 09:48:55;;;;;;;5.85;2.70;;;;;;;;;;3583006;40;20048;-59
2021/06/30 09:51:22;;;;;;;3.30;2.25;;;;;;;;;;3582554;40;20053;-59
2021/06/30 09:53:47;;;;;;;4.05;2.33;;;;;;;;;;3582233;40;20121;-59
2021/06/30 09:56:34;;;;;;;5.40;2.78;;;;;;;;;;3580519;40;20384;-59
2021/06/30 09:59:16;;;;;;;3.83;1.98;;;;;;;;;;3583655;40;20028;-60
2021/06/30 10:01:52;;;;;;;4.40;1.58;;;;;;;;;;3584034;40;20181;-60
2021/06/30 10:04:34;;;;;;;3.35;1.77;;;;;;;;;;3583502;40;20403;-59
2021/06/30 10:07:03;;;;;;;2.35;1.50;;;;;;;;;;3582815;40;20135;-60
2021/06/30 10:09:29;;;;;;;2.83;1.65;;;;;;;;;;3583695;40;20043;-59
2021/06/30 10:12:03;;;;;;;6.03;1.80;;;;;;;;;;3583889;40;20044;-59
2021/06/30 10:14:29;;;;;;;11.05;1.77;;;;;;;;;;3580424;40;20126;-59
2021/06/30 10:16:56;;;;;;;4.50;2.10;;;;;;;;;;3582217;40;20622;-58
2021/06/30 10:19:21;;;;;;;3.85;2.17;;;;;;;;;;3583517;40;20072;-59
2021/06/30 10:21:47;;;;;;;3.10;1.63;;;;;;;;;;3583378;40;20044;-61
2021/06/30 10:24:14;;;;;;;3.72;1.60;;;;;;;;;;3581763;40;20060;-60
2021/06/30 10:26:40;;;;;;;2.65;1.63;;;;;;;;;;3581013;40;20044;-59
2021/06/30 10:29:05;;;;;;;3.00;1.58;;;;;;;;;;3583499;40;20689;-59
2021/06/30 10:31:35;;;;;;;2.97;1.58;;;;;;;;;;3583445;40;20025;-59
2021/06/30 10:34:05;;;;;;;3.35;1.67;;;;;;;;;;3583374;40;20025;-59
2021/06/30 10:36:54;;;;;;;3.20;1.60;;;;;;;;;;3581362;40;20065;-58
2021/06/30 10:39:41;;;;;;;3.80;1.95;;;;;;;;;;3581911;40;20261;-59
2021/06/30 10:42:35;;;;;;;3.20;2.00;;;;;;;;;;3581880;40;20045;-59
2021/06/30 10:45:02;;;;;;;2.97;1.73;;;;;;;;;;3583919;40;20076;-58
2021/06/30 10:47:44;;;;;;;3.53;2.30;;;;;;;;;;3582497;40;20170;-59
2021/06/30 10:50:22;;;;;;;3.40;2.20;;;;;;;;;;3583075;40;20029;-59
2021/06/30 10:53:15;;;;;;;3.17;2.03;;;;;;;;;;3582255;40;20503;-58
2021/06/30 10:55:54;;;;;;;3.25;2.03;;;;;;;;;;3576642;40;20055;-59
2021/06/30 10:58:30;;;;;;;3.83;1.80;;;;;;;;;;3582063;40;20060;-59
2021/06/30 11:01:00;;;;;;;3.50;2.25;;;;;;;;;;3582183;40;20039;-59
2021/06/30 11:03:47;;;;;;;3.50;1.95;;;;;;;;;;3582511;40;20041;-60
2021/06/30 11:06:23;;;;;;;5.32;2.40;;;;;;;;;;3582397;40;20080;-60
2021/06/30 11:08:53;;;;;;;4.63;2.55;;;;;;;;;;3579501;40;20065;-60
2021/06/30 11:11:26;;;;;;;4.57;2.63;;;;;;;;;;3581918;40;20029;-59
2021/06/30 11:13:56;;;;;;;4.45;2.80;;;;;;;;;;3582923;40;20033;-60
2021/06/30 11:16:51;;;;;;;;;;;;;;;;;;3583021;40;20040;-60
2021/06/30 11:22:01;;;;;;;3.95;3.05;;;;;;;;;;3581908;40;20049;-59
2021/06/30 11:24:36;;;;;;;6.90;3.00;;;;;;;;;;3574733;40;20450;-60
2021/06/30 11:27:34;;;;;;;4.80;2.83;;;;;;;;;;3583508;40;20122;-60
2021/06/30 11:30:03;;;;;;;3.58;2.67;;;;;;;;;;3580909;40;20156;-59
2021/06/30 11:32:32;;;;;;;6.43;2.85;;;;;;;;;;3580094;40;20453;-59
2021/06/30 11:35:08;;;;;;;7.53;2.85;;;;;;;;;;3581490;40;20029;-59
2021/06/30 11:37:34;;;;;;;4.35;2.40;;;;;;;;;;3582774;40;20033;-59
2021/06/30 11:40:05;;;;;;;2.88;1.70;;;;;;;;;;3583780;40;20039;-60
2021/06/30 11:42:32;;;;;;;2.38;1.25;;;;;;;;;;3580269;40;20063;-59
2021/06/30 11:44:58;;;;;;;3.42;1.67;;;;;;;;;;3582314;40;20364;-59
2021/06/30 11:47:24;;;;;;;4.75;1.80;;;;;;;;;;3582805;40;20056;-58
2021/06/30 11:49:59;;;;;;;2.50;1.45;;;;;;;;;;3581564;40;20413;-60
2021/06/30 11:52:25;;;;;;;3.45;1.55;;;;;;;;;;3582253;40;20112;-58
2021/06/30 11:54:58;;;;;;;2.50;1.20;;;;;;;;;;3583300;40;20711;-61
2021/06/30 11:57:23;;;;;;;2.65;1.30;;;;;;;;;;3572922;40;20437;-60
2021/06/30 12:00:07;;;;;;;3.50;1.52;;;;;;;;;;3581407;40;20037;-60
2021/06/30 12:02:59;;;;;;;2.42;1.33;;;;;;;;;;3581577;40;20041;-61
2021/06/30 12:05:27;;;;;;;2.22;1.10;;;;;;;;;;3582832;40;20045;-61
2021/06/30 12:07:54;;;;;;;2.78;1.08;;;;;;;;;;3583425;40;20029;-60
2021/06/30 12:10:24;;;;;;;3.38;1.50;;;;;;;;;;3584438;40;20068;-60
2021/06/30 12:12:50;;;;;;;2.95;1.52;;;;;;;;;;3574784;40;20047;-60
2021/06/30 12:15:16;;;;;;;7.32;1.63;;;;;;;;;;3583172;40;20041;-60
2021/06/30 12:17:50;;;;;;;2.42;1.30;;;;;;;;;;3583122;40;20040;-60
2021/06/30 12:20:17;;;;;;;2.00;1.10;;;;;;;;;;3584001;40;20137;-60
2021/06/30 12:22:43;;;;;;;5.90;1.48;;;;;;;;;;3584489;40;20092;-60
2021/06/30 12:25:23;;;;;;;4.22;1.33;;;;;;;;;;3580738;40;20033;-60
2021/06/30 12:28:04;;;;;;;2.38;1.17;;;;;;;;;;3583618;40;20064;-61
2021/06/30 12:30:35;;;;;;;2.63;1.20;;;;;;;;;;3576362;40;20052;-61
2021/06/30 12:33:09;;;;;;;2.47;1.40;;;;;;;;;;3583839;40;20036;-61
2021/06/30 12:35:38;;;;;;;2.50;1.23;;;;;;;;;;3582962;40;20063;-60
2021/06/30 12:38:10;;;;;;;3.17;1.73;;;;;;;;;;3581909;40;20029;-61
2021/06/30 12:40:37;;;;;;;1.67;1.10;;;;;;;;;;3582783;40;20043;-61
2021/06/30 12:43:16;;;;;;;2.22;1.20;;;;;;;;;;3583488;40;20073;-61
2021/06/30 12:45:47;;;;;;;2.75;1.33;;;;;;;;;;3582935;40;20037;-61
2021/06/30 12:48:16;;;;;;;2.45;1.17;;;;;;;;;;3581642;40;20043;-60
2021/06/30 12:50:44;;;;;;;2.35;1.25;;;;;;;;;;3582064;40;20028;-60
2021/06/30 12:53:22;;;;;;;1.80;0.95;;;;;;;;;;3582762;40;20048;-60
2021/06/30 12:55:58;;;;;;;3.15;1.13;;;;;;;;;;3581143;40;20044;-61
2021/06/30 12:58:48;;;;;;;5.82;1.50;;;;;;;;;;3581621;40;20151;-60
2021/06/30 13:01:16;;;;;;;2.28;1.17;;;;;;;;;;3582586;40;20045;-60
2021/06/30 13:03:52;;;;;;;2.58;1.20;;;;;;;;;;3582160;40;20031;-60
2021/06/30 13:06:21;;;;;;;3.50;0.98;;;;;;;;;;3583533;40;20414;-63
2021/06/30 13:09:02;;;;;;;2.75;1.15;;;;;;;;;;3584354;40;20044;-59
2021/06/30 13:11:28;;;;;;;3.85;1.20;;;;;;;;;;3584836;40;20358;-60
2021/06/30 13:13:58;;;;;;;2.83;1.38;;;;;;;;;;3582944;40;20033;-58
2021/06/30 13:16:24;;;;;;;2.85;1.20;;;;;;;;;;3582907;40;20033;-60
2021/06/30 13:18:54;;;;;;;2.35;1.13;;;;;;;;;;3583674;40;20035;-60
2021/06/30 13:21:20;;;;;;;6.33;1.20;;;;;;;;;;3580191;40;20051;-60
2021/06/30 13:24:06;;;;;;;2.33;1.02;;;;;;;;;;3583112;40;20045;-58
2021/06/30 13:27:40;;;;;;;2.15;0.98;;;;;;;;;;3576921;40;20040;-58
2021/06/30 13:34:17;;;;;;;3.53;1.30;;;;;;;;;;3576622;40;20025;-58
2021/06/30 13:36:08;;;;;;;2.45;1.20;;;;;;;;;;3569019;40;20376;-58
2021/06/30 13:38:41;;;;;;;2.65;1.40;;;;;;;;;;3583551;40;20268;-59
2021/06/30 13:41:13;;;;;;;2.85;1.20;;;;;;;;;;3579482;40;20133;-58
2021/06/30 13:43:38;;;;;;;2.45;1.17;;;;;;;;;;3581695;40;20333;-58
2021/06/30 13:46:08;;;;;;;2.22;1.10;;;;;;;;;;3581367;40;20033;-58
2021/06/30 13:48:34;;;;;;;3.08;1.13;;;;;;;;;;3581998;40;20059;-58
2021/06/30 13:51:03;;;;;;;2.85;1.05;;;;;;;;;;3580256;40;20487;-58
2021/06/30 13:53:30;;;;;;;2.63;1.30;;;;;;;;;;3582403;40;20033;-58
2021/06/30 13:55:57;;;;;;;2.75;1.20;;;;;;;;;;3582430;40;20050;-59
2021/06/30 13:58:23;;;;;;;5.40;1.35;;;;;;;;;;3582100;40;20033;-58
2021/06/30 14:00:49;;;;;;;3.15;1.52;;;;;;;;;;3583676;40;20028;-58
2021/06/30 14:03:15;;;;;;;2.45;1.17;;;;;;;;;;3582765;40;20040;-59
2021/06/30 14:05:41;;;;;;;2.78;1.50;;;;;;;;;;3582717;40;20040;-59
2021/06/30 14:08:13;;;;;;;11.30;1.50;;;;;;;;;;3582914;40;20113;-59
2021/06/30 14:10:44;;;;;;;5.95;2.50;;;;;;;;;;3582240;40;20029;-59
2021/06/30 14:13:10;;;;;;;3.15;1.48;;;;;;;;;;3584729;40;20044;-59
2021/06/30 14:15:37;;;;;;;2.75;1.55;;;;;;;;;;3581991;40;20520;-59
2021/06/30 14:18:04;;;;;;;3.10;1.35;;;;;;;;;;3582395;40;20047;-59
2021/06/30 14:20:30;;;;;;;2.72;1.48;;;;;;;;;;3583310;40;20043;-59
2021/06/30 14:22:55;;;;;;;3.78;1.52;;;;;;;;;;3575786;40;20053;-59
2021/06/30 14:25:21;;;;;;;4.25;1.48;;;;;;;;;;3581120;40;20080;-59
2021/06/30 14:27:47;;;;;;;5.13;1.30;;;;;;;;;;3581647;40;20269;-59
2021/06/30 14:30:16;;;;;;;5.55;1.30;;;;;;;;;;3582795;40;20130;-59
2021/06/30 14:32:42;;;;;;;8.50;1.60;;;;;;;;;;3583496;40;20402;-59
2021/06/30 14:35:09;;;;;;;2.63;1.30;;;;;;;;;;3582968;40;20037;-59
2021/06/30 14:37:35;;;;;;;4.00;1.45;;;;;;;;;;3580778;40;20242;-60
2021/06/30 14:40:04;;;;;;;3.58;1.40;;;;;;;;;;3582147;40;20029;-59
2021/06/30 14:42:30;;;;;;;2.65;1.40;;;;;;;;;;3572802;40;20163;-59
2021/06/30 14:44:56;;;;;;;3.83;1.42;;;;;;;;;;3583469;40;20045;-59
2021/06/30 14:47:21;;;;;;;2.83;1.48;;;;;;;;;;3582814;40;20075;-59
2021/06/30 14:49:47;;;;;;;2.38;1.30;;;;;;;;;;3582223;40;20052;-59
2021/06/30 14:52:15;;;;;;;2.53;1.30;;;;;;;;;;3582377;40;20357;-59
2021/06/30 14:54:41;;;;;;;4.35;1.60;;;;;;;;;;3580981;40;20154;-59